EZY64J EGSS-EGPH
Flight info
| Callsign | EZY64J |
|---|---|
| Flight time | 1h 10m |
| Altitude | 32000 |
| Route | UTAVA Q75 BUZAD T420 TNT UN57 POL UN601 RIBEL DCT INPIP |
| Aircraft | A320/M-SDE3FGHIRWY/LB1 |
Departure
| Time | 2026-04-24 11:23 |
|---|---|
| Airport | London Stansted Airport (EGSS) |
Arrival
| Time | 2026-04-24 12:33 |
|---|---|
| Airport | Edinburgh Airport (EGPH) |
| Time | Latitude | Longitude | Altitude | Speed | Heading |
|---|---|---|---|---|---|
| 2026-04-24 11:03 | 51.89317 | 0.25831 | 362 ft | 0 kts | 43° |
| 2026-04-24 11:13 | 51.89309 | 0.25818 | 352 ft | 2 kts | 32° |
| 2026-04-24 11:14 | 51.89295 | 0.25803 | 362 ft | 2 kts | 33° |
| 2026-04-24 11:14 | 51.89280 | 0.25795 | 360 ft | 2 kts | 8° |
| 2026-04-24 11:14 | 51.89263 | 0.25796 | 362 ft | 0 kts | 317° |
| 2026-04-24 11:16 | 51.89264 | 0.25795 | 362 ft | 2 kts | 317° |
| 2026-04-24 11:16 | 51.89299 | 0.25737 | 358 ft | 8 kts | 312° |
| 2026-04-24 11:17 | 51.89333 | 0.25676 | 361 ft | 7 kts | 312° |
| 2026-04-24 11:17 | 51.89374 | 0.25585 | 353 ft | 18 kts | 298° |
| 2026-04-24 11:17 | 51.89413 | 0.25417 | 355 ft | 15 kts | 252° |
| 2026-04-24 11:17 | 51.89346 | 0.25303 | 352 ft | 13 kts | 223° |
| 2026-04-24 11:18 | 51.89266 | 0.25177 | 352 ft | 20 kts | 231° |
| 2026-04-24 11:18 | 51.89192 | 0.25005 | 355 ft | 17 kts | 223° |
| 2026-04-24 11:18 | 51.89101 | 0.24865 | 360 ft | 25 kts | 220° |
| 2026-04-24 11:18 | 51.88897 | 0.24564 | 352 ft | 43 kts | 223° |
| 2026-04-24 11:19 | 51.88676 | 0.24231 | 346 ft | 43 kts | 223° |
| 2026-04-24 11:19 | 51.88454 | 0.23903 | 336 ft | 43 kts | 221° |
| 2026-04-24 11:19 | 51.88235 | 0.23569 | 336 ft | 43 kts | 224° |
| 2026-04-24 11:19 | 51.88016 | 0.23238 | 337 ft | 43 kts | 222° |
| 2026-04-24 11:20 | 51.87801 | 0.22920 | 335 ft | 39 kts | 223° |
| 2026-04-24 11:20 | 51.87606 | 0.22626 | 334 ft | 39 kts | 223° |
| 2026-04-24 11:20 | 51.87426 | 0.22360 | 327 ft | 6 kts | 224° |
| 2026-04-24 11:20 | 51.87425 | 0.22357 | 327 ft | 1 kts | 226° |
| 2026-04-24 11:21 | 51.87404 | 0.22309 | 327 ft | 17 kts | 243° |
| 2026-04-24 11:21 | 51.87444 | 0.22128 | 323 ft | 19 kts | 311° |
| 2026-04-24 11:21 | 51.87531 | 0.22039 | 323 ft | 11 kts | 14° |
| 2026-04-24 11:21 | 51.87592 | 0.22117 | 324 ft | 11 kts | 42° |
| 2026-04-24 11:22 | 51.87647 | 0.22199 | 324 ft | 11 kts | 42° |
| 2026-04-24 11:22 | 51.87703 | 0.22284 | 326 ft | 0 kts | 43° |
| 2026-04-24 11:22 | 51.87708 | 0.22291 | 322 ft | 6 kts | 43° |
| 2026-04-24 11:23 | 51.87923 | 0.22615 | 336 ft | 79 kts | 43° |
| 2026-04-24 11:23 | 51.88484 | 0.23455 | 339 ft | 138 kts | 41° |
| 2026-04-24 11:23 | 51.89291 | 0.24631 | 575 ft | 166 kts | 45° |
| 2026-04-24 11:23 | 51.90151 | 0.25937 | 1253 ft | 169 kts | 44° |
| 2026-04-24 11:24 | 51.91016 | 0.27252 | 1926 ft | 177 kts | 45° |
| 2026-04-24 11:24 | 51.91974 | 0.28708 | 2310 ft | 200 kts | 44° |
| 2026-04-24 11:24 | 51.93247 | 0.29852 | 2710 ft | 226 kts | 14° |
| 2026-04-24 11:24 | 51.94896 | 0.29681 | 3190 ft | 255 kts | 340° |
| 2026-04-24 11:25 | 51.96336 | 0.27894 | 3806 ft | 273 kts | 307° |
| 2026-04-24 11:25 | 51.97088 | 0.25074 | 3973 ft | 274 kts | 285° |
| 2026-04-24 11:25 | 51.97486 | 0.22098 | 3998 ft | 274 kts | 280° |
| 2026-04-24 11:25 | 51.97778 | 0.19041 | 4007 ft | 274 kts | 278° |
| 2026-04-24 11:26 | 51.98043 | 0.15979 | 4007 ft | 274 kts | 278° |
| 2026-04-24 11:26 | 51.98318 | 0.12915 | 4171 ft | 277 kts | 278° |
| 2026-04-24 11:26 | 51.98616 | 0.09829 | 5220 ft | 277 kts | 279° |
| 2026-04-24 11:26 | 51.98902 | 0.06713 | 6184 ft | 281 kts | 274° |
| 2026-04-24 11:27 | 51.98791 | 0.03539 | 7084 ft | 285 kts | 262° |
| 2026-04-24 11:27 | 51.98542 | 0.00321 | 7961 ft | 288 kts | 263° |
| 2026-04-24 11:27 | 51.98294 | -0.02939 | 8792 ft | 294 kts | 262° |
| 2026-04-24 11:27 | 51.98045 | -0.06212 | 9654 ft | 298 kts | 263° |
| 2026-04-24 11:28 | 51.97792 | -0.09565 | 10472 ft | 302 kts | 262° |
| 2026-04-24 11:28 | 51.97523 | -0.13083 | 10782 ft | 326 kts | 262° |
| 2026-04-24 11:28 | 51.97232 | -0.16852 | 11116 ft | 345 kts | 262° |
| 2026-04-24 11:28 | 51.96931 | -0.20758 | 11784 ft | 352 kts | 262° |
| 2026-04-24 11:29 | 51.96626 | -0.24710 | 12566 ft | 355 kts | 262° |
| 2026-04-24 11:29 | 51.96319 | -0.28690 | 13393 ft | 356 kts | 262° |
| 2026-04-24 11:29 | 51.96010 | -0.32697 | 14164 ft | 359 kts | 261° |
| 2026-04-24 11:29 | 51.95695 | -0.36723 | 14863 ft | 361 kts | 261° |
| 2026-04-24 11:30 | 51.95373 | -0.40780 | 15541 ft | 364 kts | 261° |
| 2026-04-24 11:30 | 51.95066 | -0.44865 | 16226 ft | 366 kts | 264° |
| 2026-04-24 11:30 | 51.95176 | -0.49013 | 16891 ft | 371 kts | 278° |
| 2026-04-24 11:30 | 51.95911 | -0.53058 | 17547 ft | 377 kts | 292° |
| 2026-04-24 11:31 | 51.97242 | -0.56745 | 18189 ft | 383 kts | 306° |
| 2026-04-24 11:31 | 51.99113 | -0.59844 | 18785 ft | 389 kts | 321° |
| 2026-04-24 11:31 | 52.01394 | -0.62256 | 19339 ft | 393 kts | 328° |
| 2026-04-24 11:31 | 52.03747 | -0.64552 | 19894 ft | 396 kts | 328° |
| 2026-04-24 11:32 | 52.06116 | -0.66865 | 20472 ft | 399 kts | 328° |
| 2026-04-24 11:32 | 52.08500 | -0.69203 | 21038 ft | 402 kts | 328° |
| 2026-04-24 11:32 | 52.10902 | -0.71564 | 21591 ft | 405 kts | 328° |
| 2026-04-24 11:32 | 52.13322 | -0.73946 | 22148 ft | 408 kts | 327° |
| 2026-04-24 11:33 | 52.15761 | -0.76353 | 22696 ft | 411 kts | 327° |
| 2026-04-24 11:33 | 52.18217 | -0.78782 | 23238 ft | 415 kts | 327° |
| 2026-04-24 11:33 | 52.20691 | -0.81228 | 23764 ft | 418 kts | 327° |
| 2026-04-24 11:33 | 52.23185 | -0.83697 | 24211 ft | 421 kts | 327° |
| 2026-04-24 11:34 | 52.25666 | -0.86156 | 24654 ft | 422 kts | 327° |
| 2026-04-24 11:34 | 52.28184 | -0.88651 | 25098 ft | 424 kts | 327° |
| 2026-04-24 11:34 | 52.30714 | -0.91164 | 25518 ft | 426 kts | 327° |
| 2026-04-24 11:34 | 52.33249 | -0.93691 | 25935 ft | 428 kts | 327° |
| 2026-04-24 11:35 | 52.35795 | -0.96233 | 26345 ft | 430 kts | 327° |
| 2026-04-24 11:35 | 52.38356 | -0.98787 | 26749 ft | 432 kts | 327° |
| 2026-04-24 11:35 | 52.40927 | -1.01349 | 27177 ft | 432 kts | 327° |
| 2026-04-24 11:35 | 52.43493 | -1.03915 | 27315 ft | 432 kts | 327° |
| 2026-04-24 11:36 | 52.46055 | -1.06484 | 27334 ft | 432 kts | 327° |
| 2026-04-24 11:36 | 52.48615 | -1.09052 | 27327 ft | 431 kts | 327° |
| 2026-04-24 11:36 | 52.51174 | -1.11625 | 27316 ft | 431 kts | 327° |
| 2026-04-24 11:36 | 52.53728 | -1.14203 | 27307 ft | 432 kts | 327° |
| 2026-04-24 11:37 | 52.56300 | -1.16803 | 27296 ft | 433 kts | 327° |
| 2026-04-24 11:37 | 52.58868 | -1.19393 | 27289 ft | 434 kts | 327° |
| 2026-04-24 11:37 | 52.60421 | -1.20957 | 27283 ft | 434 kts | 327° |
| 2026-04-24 11:53 | 52.61511 | -1.22027 | 27178 ft | 437 kts | 328° |
| 2026-04-24 11:53 | 52.64112 | -1.24601 | 27280 ft | 435 kts | 327° |
| 2026-04-24 11:54 | 52.66656 | -1.27174 | 27273 ft | 434 kts | 327° |
| 2026-04-24 11:54 | 52.69228 | -1.29810 | 27272 ft | 434 kts | 327° |
| 2026-04-24 11:54 | 52.71785 | -1.32444 | 27275 ft | 434 kts | 327° |
| 2026-04-24 11:54 | 52.74350 | -1.35080 | 27386 ft | 434 kts | 327° |
| 2026-04-24 11:55 | 52.76913 | -1.37709 | 27380 ft | 434 kts | 327° |
| 2026-04-24 11:55 | 52.79479 | -1.40334 | 27380 ft | 435 kts | 327° |
| 2026-04-24 11:55 | 52.82054 | -1.42965 | 27383 ft | 435 kts | 327° |
| 2026-04-24 11:55 | 52.84628 | -1.45594 | 27383 ft | 435 kts | 327° |
| 2026-04-24 11:56 | 52.87212 | -1.48233 | 27380 ft | 435 kts | 327° |
| 2026-04-24 11:56 | 52.89787 | -1.50874 | 27380 ft | 435 kts | 327° |
| 2026-04-24 11:56 | 52.92356 | -1.53520 | 27382 ft | 434 kts | 327° |
| 2026-04-24 11:56 | 52.94917 | -1.56163 | 27379 ft | 433 kts | 327° |
| 2026-04-24 11:57 | 52.97480 | -1.58809 | 27379 ft | 433 kts | 327° |
| 2026-04-24 11:57 | 53.00038 | -1.61450 | 27376 ft | 433 kts | 328° |
| 2026-04-24 11:57 | 53.02599 | -1.64094 | 27378 ft | 433 kts | 328° |
| 2026-04-24 11:57 | 53.05163 | -1.66594 | 27368 ft | 432 kts | 333° |
| 2026-04-24 11:58 | 53.07928 | -1.68575 | 27375 ft | 432 kts | 340° |
| 2026-04-24 11:58 | 53.10786 | -1.70329 | 27370 ft | 433 kts | 340° |
| 2026-04-24 11:58 | 53.13572 | -1.72049 | 27370 ft | 433 kts | 339° |
| 2026-04-24 11:58 | 53.16394 | -1.73796 | 27367 ft | 433 kts | 339° |
| 2026-04-24 11:59 | 53.19221 | -1.75551 | 27364 ft | 432 kts | 339° |
| 2026-04-24 11:59 | 53.22038 | -1.77306 | 27367 ft | 433 kts | 339° |
| 2026-04-24 11:59 | 53.24858 | -1.79066 | 27363 ft | 433 kts | 339° |
| 2026-04-24 11:59 | 53.27671 | -1.80822 | 27364 ft | 432 kts | 339° |
| 2026-04-24 12:00 | 53.30483 | -1.82574 | 27365 ft | 432 kts | 339° |
| 2026-04-24 12:00 | 53.33306 | -1.84335 | 27364 ft | 432 kts | 339° |
| 2026-04-24 12:00 | 53.36123 | -1.86093 | 27360 ft | 432 kts | 339° |
| 2026-04-24 12:00 | 53.38942 | -1.87859 | 27369 ft | 432 kts | 339° |
| 2026-04-24 12:01 | 53.41796 | -1.89650 | 27368 ft | 432 kts | 339° |
| 2026-04-24 12:01 | 53.44609 | -1.91421 | 27355 ft | 432 kts | 339° |
| 2026-04-24 12:01 | 53.47386 | -1.93178 | 27358 ft | 432 kts | 339° |
| 2026-04-24 12:01 | 53.50193 | -1.94959 | 27355 ft | 432 kts | 339° |
| 2026-04-24 12:02 | 53.53003 | -1.96737 | 27354 ft | 431 kts | 339° |
| 2026-04-24 12:02 | 53.55808 | -1.98508 | 27351 ft | 431 kts | 339° |
| 2026-04-24 12:02 | 53.58619 | -2.00288 | 27351 ft | 431 kts | 339° |
| 2026-04-24 12:02 | 53.61421 | -2.02065 | 27351 ft | 431 kts | 339° |
| 2026-04-24 12:03 | 53.64229 | -2.03849 | 27352 ft | 431 kts | 339° |
| 2026-04-24 12:03 | 53.67036 | -2.05638 | 27355 ft | 431 kts | 339° |
| 2026-04-24 12:03 | 53.69841 | -2.07431 | 27356 ft | 431 kts | 339° |
| 2026-04-24 12:03 | 53.72641 | -2.09222 | 27353 ft | 428 kts | 339° |
| 2026-04-24 12:04 | 53.75410 | -2.10995 | 27346 ft | 424 kts | 339° |
| 2026-04-24 12:04 | 53.78153 | -2.12806 | 27351 ft | 422 kts | 338° |
| 2026-04-24 12:04 | 53.80875 | -2.14658 | 27351 ft | 422 kts | 338° |
| 2026-04-24 12:04 | 53.83596 | -2.16541 | 27348 ft | 422 kts | 338° |
| 2026-04-24 12:05 | 53.86316 | -2.18430 | 27347 ft | 422 kts | 338° |
| 2026-04-24 12:05 | 53.89036 | -2.20314 | 27348 ft | 422 kts | 338° |
| 2026-04-24 12:05 | 53.91758 | -2.22189 | 27349 ft | 422 kts | 338° |
| 2026-04-24 12:05 | 53.94477 | -2.24055 | 27343 ft | 422 kts | 338° |
| 2026-04-24 12:06 | 53.97196 | -2.25919 | 27343 ft | 422 kts | 338° |
| 2026-04-24 12:06 | 53.99914 | -2.27786 | 27338 ft | 421 kts | 338° |
| 2026-04-24 12:06 | 54.02632 | -2.29656 | 27341 ft | 420 kts | 338° |
| 2026-04-24 12:06 | 54.05344 | -2.31527 | 27343 ft | 420 kts | 338° |
| 2026-04-24 12:07 | 54.08051 | -2.33399 | 27343 ft | 420 kts | 338° |
| 2026-04-24 12:07 | 54.10761 | -2.35277 | 27341 ft | 420 kts | 338° |
| 2026-04-24 12:07 | 54.13462 | -2.37153 | 27343 ft | 420 kts | 338° |
| 2026-04-24 12:07 | 54.16167 | -2.39034 | 27342 ft | 420 kts | 338° |
| 2026-04-24 12:08 | 54.18875 | -2.40916 | 27343 ft | 419 kts | 338° |
| 2026-04-24 12:08 | 54.21582 | -2.42799 | 27340 ft | 420 kts | 338° |
| 2026-04-24 12:08 | 54.24283 | -2.44679 | 27341 ft | 419 kts | 339° |
| 2026-04-24 12:08 | 54.26988 | -2.46561 | 27343 ft | 419 kts | 339° |
| 2026-04-24 12:09 | 54.29689 | -2.48445 | 27343 ft | 419 kts | 338° |
| 2026-04-24 12:09 | 54.32389 | -2.50335 | 27344 ft | 419 kts | 338° |
| 2026-04-24 12:09 | 54.35084 | -2.52229 | 27344 ft | 419 kts | 338° |
| 2026-04-24 12:09 | 54.37784 | -2.54127 | 27345 ft | 419 kts | 338° |
| 2026-04-24 12:10 | 54.40475 | -2.56019 | 27346 ft | 419 kts | 338° |
| 2026-04-24 12:10 | 54.43177 | -2.57921 | 27352 ft | 419 kts | 338° |
| 2026-04-24 12:10 | 54.45876 | -2.59820 | 27353 ft | 419 kts | 338° |
| 2026-04-24 12:11 | 54.51221 | -2.63590 | 27357 ft | 417 kts | 339° |
| 2026-04-24 12:11 | 54.53907 | -2.65494 | 27352 ft | 417 kts | 339° |
| 2026-04-24 12:11 | 54.56593 | -2.67397 | 27349 ft | 417 kts | 339° |
| 2026-04-24 12:11 | 54.59272 | -2.69298 | 27346 ft | 417 kts | 339° |
| 2026-04-24 12:12 | 54.61954 | -2.71201 | 27347 ft | 416 kts | 339° |
| 2026-04-24 12:12 | 54.64629 | -2.73105 | 27349 ft | 415 kts | 339° |
| 2026-04-24 12:12 | 54.67296 | -2.75006 | 27347 ft | 415 kts | 339° |
| 2026-04-24 12:12 | 54.69969 | -2.76910 | 27352 ft | 415 kts | 339° |
| 2026-04-24 12:13 | 54.72647 | -2.78816 | 27343 ft | 415 kts | 339° |
| 2026-04-24 12:13 | 54.75319 | -2.80720 | 27356 ft | 416 kts | 339° |
| 2026-04-24 12:13 | 54.77990 | -2.82628 | 27345 ft | 416 kts | 339° |
| 2026-04-24 12:13 | 54.80658 | -2.84547 | 27338 ft | 410 kts | 339° |
| 2026-04-24 12:14 | 54.83245 | -2.86418 | 27179 ft | 396 kts | 339° |
| 2026-04-24 12:14 | 54.85770 | -2.88244 | 26755 ft | 390 kts | 339° |
| 2026-04-24 12:14 | 54.88268 | -2.90045 | 26252 ft | 387 kts | 339° |
| 2026-04-24 12:14 | 54.90749 | -2.91835 | 25749 ft | 385 kts | 339° |
| 2026-04-24 12:15 | 54.93221 | -2.93621 | 25251 ft | 383 kts | 339° |
| 2026-04-24 12:15 | 54.95689 | -2.95406 | 24596 ft | 386 kts | 339° |
| 2026-04-24 12:15 | 54.98172 | -2.97201 | 24044 ft | 386 kts | 339° |
| 2026-04-24 12:15 | 55.00652 | -2.98997 | 23444 ft | 386 kts | 338° |
| 2026-04-24 12:16 | 55.03124 | -3.00797 | 22906 ft | 383 kts | 338° |
| 2026-04-24 12:16 | 55.05575 | -3.02588 | 22372 ft | 381 kts | 338° |
| 2026-04-24 12:16 | 55.08014 | -3.04375 | 21835 ft | 379 kts | 338° |
| 2026-04-24 12:16 | 55.10444 | -3.06156 | 21298 ft | 377 kts | 338° |
| 2026-04-24 12:17 | 55.12862 | -3.07926 | 20776 ft | 376 kts | 338° |
| 2026-04-24 12:17 | 55.15268 | -3.09682 | 20259 ft | 375 kts | 338° |
| 2026-04-24 12:17 | 55.17693 | -3.11450 | 19415 ft | 382 kts | 338° |
| 2026-04-24 12:17 | 55.20124 | -3.13226 | 18969 ft | 379 kts | 338° |
| 2026-04-24 12:18 | 55.22543 | -3.15000 | 18502 ft | 376 kts | 338° |
| 2026-04-24 12:18 | 55.24956 | -3.16779 | 17945 ft | 374 kts | 337° |
| 2026-04-24 12:18 | 55.27322 | -3.18526 | 17741 ft | 363 kts | 338° |
| 2026-04-24 12:18 | 55.29680 | -3.19830 | 17601 ft | 350 kts | 350° |
| 2026-04-24 12:19 | 55.32062 | -3.20083 | 17472 ft | 338 kts | 4° |
| 2026-04-24 12:19 | 55.34374 | -3.19724 | 17282 ft | 329 kts | 5° |
| 2026-04-24 12:19 | 55.36644 | -3.19364 | 16937 ft | 326 kts | 5° |
| 2026-04-24 12:19 | 55.38892 | -3.19012 | 16571 ft | 323 kts | 5° |
| 2026-04-24 12:20 | 55.41119 | -3.18666 | 16328 ft | 319 kts | 5° |
| 2026-04-24 12:20 | 55.43319 | -3.18325 | 16331 ft | 317 kts | 5° |
| 2026-04-24 12:20 | 55.45517 | -3.17984 | 16332 ft | 317 kts | 5° |
| 2026-04-24 12:20 | 55.47718 | -3.17639 | 16336 ft | 317 kts | 5° |
| 2026-04-24 12:21 | 55.49919 | -3.17290 | 16336 ft | 318 kts | 5° |
| 2026-04-24 12:21 | 55.52119 | -3.16943 | 16331 ft | 318 kts | 5° |
| 2026-04-24 12:21 | 55.54320 | -3.16599 | 16330 ft | 318 kts | 5° |
| 2026-04-24 12:21 | 55.56528 | -3.16253 | 16333 ft | 318 kts | 5° |
| 2026-04-24 12:22 | 55.58729 | -3.15909 | 16333 ft | 318 kts | 5° |
| 2026-04-24 12:22 | 55.60930 | -3.15562 | 16332 ft | 318 kts | 5° |
| 2026-04-24 12:22 | 55.63136 | -3.15211 | 16335 ft | 318 kts | 5° |
| 2026-04-24 12:22 | 55.65335 | -3.14934 | 16335 ft | 313 kts | 358° |
| 2026-04-24 12:23 | 55.67407 | -3.15874 | 16340 ft | 298 kts | 330° |
| 2026-04-24 12:23 | 55.68928 | -3.18171 | 16344 ft | 293 kts | 305° |
| 2026-04-24 12:23 | 55.69748 | -3.21425 | 16339 ft | 292 kts | 279° |
| 2026-04-24 12:23 | 55.69705 | -3.24988 | 16344 ft | 292 kts | 255° |
| 2026-04-24 12:24 | 55.69109 | -3.28450 | 16341 ft | 293 kts | 252° |
| 2026-04-24 12:24 | 55.68484 | -3.31884 | 16332 ft | 293 kts | 252° |
| 2026-04-24 12:24 | 55.67852 | -3.35345 | 15957 ft | 295 kts | 252° |
| 2026-04-24 12:24 | 55.67216 | -3.38806 | 15650 ft | 293 kts | 252° |
| 2026-04-24 12:25 | 55.66586 | -3.42232 | 15340 ft | 292 kts | 252° |
| 2026-04-24 12:25 | 55.66162 | -3.44533 | 14831 ft | 302 kts | 252° |
| 2026-04-24 12:25 | 55.65500 | -3.48173 | 13990 ft | 319 kts | 254° |
| 2026-04-24 12:25 | 55.65196 | -3.52125 | 13026 ft | 333 kts | 272° |
| 2026-04-24 12:26 | 55.65615 | -3.56215 | 12029 ft | 345 kts | 290° |
| 2026-04-24 12:26 | 55.66808 | -3.59969 | 11012 ft | 358 kts | 309° |
| 2026-04-24 12:26 | 55.68608 | -3.63105 | 9882 ft | 369 kts | 317° |
| 2026-04-24 12:26 | 55.70549 | -3.66141 | 8779 ft | 370 kts | 319° |
| 2026-04-24 12:27 | 55.72520 | -3.69039 | 7400 ft | 365 kts | 320° |
| 2026-04-24 12:27 | 55.74480 | -3.71829 | 6050 ft | 359 kts | 321° |
| 2026-04-24 12:27 | 55.76383 | -3.74631 | 4699 ft | 351 kts | 318° |
| 2026-04-24 12:27 | 55.78234 | -3.77339 | 3711 ft | 338 kts | 329° |
| 2026-04-24 12:28 | 55.80374 | -3.78363 | 3608 ft | 304 kts | 1° |
| 2026-04-24 12:28 | 55.82249 | -3.77342 | 3722 ft | 268 kts | 35° |
| 2026-04-24 12:28 | 55.83362 | -3.74980 | 3794 ft | 238 kts | 61° |
| 2026-04-24 12:28 | 55.84018 | -3.72399 | 3627 ft | 221 kts | 68° |
| 2026-04-24 12:29 | 55.84581 | -3.69900 | 3264 ft | 215 kts | 67° |
| 2026-04-24 12:29 | 55.85170 | -3.67497 | 2998 ft | 208 kts | 65° |
| 2026-04-24 12:29 | 55.85816 | -3.65125 | 3001 ft | 212 kts | 62° |
| 2026-04-24 12:29 | 55.86446 | -3.62780 | 3008 ft | 213 kts | 64° |
| 2026-04-24 12:30 | 55.87130 | -3.60411 | 2898 ft | 216 kts | 61° |
| 2026-04-24 12:30 | 55.87884 | -3.58131 | 2664 ft | 213 kts | 58° |
| 2026-04-24 12:30 | 55.88620 | -3.55973 | 2368 ft | 193 kts | 58° |
| 2026-04-24 12:30 | 55.89278 | -3.54047 | 2136 ft | 173 kts | 58° |
| 2026-04-24 12:31 | 55.89874 | -3.52305 | 1905 ft | 157 kts | 58° |
| 2026-04-24 12:31 | 55.90419 | -3.50708 | 1699 ft | 147 kts | 58° |
| 2026-04-24 12:31 | 55.90933 | -3.49201 | 1484 ft | 143 kts | 58° |
| 2026-04-24 12:31 | 55.91452 | -3.47684 | 1272 ft | 141 kts | 58° |
| 2026-04-24 12:32 | 55.91956 | -3.46227 | 1010 ft | 139 kts | 58° |
| 2026-04-24 12:32 | 55.92455 | -3.44765 | 823 ft | 137 kts | 58° |
| 2026-04-24 12:32 | 55.92940 | -3.43313 | 658 ft | 136 kts | 59° |
| 2026-04-24 12:32 | 55.93415 | -3.41850 | 506 ft | 137 kts | 59° |
| 2026-04-24 12:33 | 55.93895 | -3.40408 | 322 ft | 135 kts | 57° |
| 2026-04-24 12:33 | 55.94398 | -3.38999 | 181 ft | 134 kts | 57° |
| 2026-04-24 12:33 | 55.94869 | -3.37637 | 113 ft | 112 kts | 58° |
| 2026-04-24 12:33 | 55.95118 | -3.36904 | 109 ft | 35 kts | 59° |
| 2026-04-24 12:34 | 55.95231 | -3.36568 | 105 ft | 27 kts | 59° |
| 2026-04-24 12:34 | 55.95239 | -3.36405 | 101 ft | 10 kts | 132° |
| 2026-04-24 12:34 | 55.95188 | -3.36345 | 103 ft | 7 kts | 149° |
| 2026-04-24 12:34 | 55.95174 | -3.36329 | 103 ft | 0 kts | 148° |
| 2026-04-24 12:35 | 55.95158 | -3.36312 | 104 ft | 6 kts | 153° |
| 2026-04-24 12:35 | 55.95129 | -3.36316 | 104 ft | 3 kts | 211° |
| 2026-04-24 12:35 | 55.95117 | -3.36334 | 104 ft | 6 kts | 224° |
| 2026-04-24 12:36 | 55.95023 | -3.36609 | 105 ft | 28 kts | 241° |
| 2026-04-24 12:36 | 55.94965 | -3.36780 | 107 ft | 13 kts | 238° |
| 2026-04-24 12:36 | 55.94901 | -3.36806 | 105 ft | 10 kts | 149° |
| 2026-04-24 12:36 | 55.94887 | -3.36791 | 105 ft | 5 kts | 150° |
| 2026-04-24 12:37 | 55.94824 | -3.36778 | 105 ft | 6 kts | 180° |
| 2026-04-24 12:37 | 55.94804 | -3.36743 | 104 ft | 4 kts | 106° |
| 2026-04-24 12:37 | 55.94801 | -3.36672 | 105 ft | 7 kts | 89° |
| 2026-04-24 12:37 | 55.94802 | -3.36641 | 105 ft | 0 kts | 89° |